createdAt,value
2017-09-27T00:00:35.626Z,13.50
2017-09-27T00:03:03.915Z,11.16
2017-09-27T00:05:32.171Z,12.62
2017-09-27T00:08:00.456Z,13.10
2017-09-27T00:10:28.719Z,11.94
2017-09-27T00:12:57.025Z,12.70
2017-09-27T00:15:25.287Z,12.20
2017-09-27T00:17:53.575Z,12.64
2017-09-27T00:20:22.932Z,13.72
2017-09-27T00:22:52.213Z,12.52
2017-09-27T00:25:21.056Z,12.22
2017-09-27T00:27:49.307Z,13.20
2017-09-27T00:30:17.563Z,11.96
2017-09-27T00:32:45.863Z,13.18
2017-09-27T00:35:15.444Z,12.94
2017-09-27T00:37:43.707Z,11.52
2017-09-27T00:40:12.015Z,13.02
2017-09-27T00:42:40.270Z,13.78
2017-09-27T00:45:08.539Z,12.18
2017-09-27T00:47:36.062Z,10.90
2017-09-27T00:50:04.320Z,12.96
2017-09-27T00:52:32.580Z,11.14
2017-09-27T00:55:03.822Z,11.56
2017-09-27T00:57:32.117Z,13.18
2017-09-27T01:00:00.412Z,13.98
2017-09-27T01:02:28.662Z,13.28
2017-09-27T01:04:56.932Z,12.34
2017-09-27T01:07:25.217Z,12.62
2017-09-27T01:09:53.503Z,12.04
2017-09-27T01:12:22.293Z,11.08
2017-09-27T01:14:51.040Z,11.54
2017-09-27T01:17:19.319Z,10.90
2017-09-27T01:19:47.636Z,11.02
2017-09-27T01:22:15.894Z,11.68
2017-09-27T01:24:44.614Z,11.88
2017-09-27T01:27:12.899Z,10.92
2017-09-27T01:29:41.164Z,10.56
2017-09-27T01:32:09.471Z,12.20
2017-09-27T01:34:36.970Z,12.38
2017-09-27T01:37:05.275Z,13.12
2017-09-27T01:39:33.559Z,10.44
2017-09-27T01:42:01.806Z,12.38
2017-09-27T01:44:30.103Z,11.60
2017-09-27T01:46:58.360Z,11.80
2017-09-27T01:49:26.625Z,12.62
2017-09-27T01:51:54.170Z,12.00
2017-09-27T01:54:23.292Z,11.74
2017-09-27T01:56:51.547Z,12.04
2017-09-27T01:59:19.815Z,12.70
2017-09-27T02:01:48.106Z,10.78
2017-09-27T02:04:16.393Z,13.04
2017-09-27T02:06:44.643Z,11.36
2017-09-27T02:09:12.938Z,11.28
2017-09-27T02:11:41.194Z,11.12
2017-09-27T02:14:09.454Z,11.30
2017-09-27T02:16:37.738Z,10.90
2017-09-27T02:19:05.993Z,10.94
2017-09-27T02:21:34.286Z,11.94
2017-09-27T02:24:02.566Z,11.20
2017-09-27T02:26:30.863Z,11.20
2017-09-27T02:28:59.131Z,11.28
2017-09-27T02:31:27.392Z,11.64
2017-09-27T02:33:55.711Z,10.90
2017-09-27T02:36:23.974Z,10.60
2017-09-27T02:38:53.327Z,11.56
2017-09-27T02:41:21.590Z,12.88
2017-09-27T02:43:49.080Z,11.88
2017-09-27T02:46:17.374Z,10.36
2017-09-27T02:48:45.675Z,10.98
2017-09-27T02:51:15.092Z,11.18
2017-09-27T02:53:45.038Z,10.68
2017-09-27T02:56:14.478Z,12.16
2017-09-27T02:58:42.755Z,11.94
2017-09-27T03:01:11.060Z,10.40
2017-09-27T03:03:43.150Z,12.20
2017-09-27T03:06:11.446Z,12.10
2017-09-27T03:08:39.697Z,11.30
2017-09-27T03:11:07.968Z,11.08
2017-09-27T03:13:36.269Z,11.54
2017-09-27T03:16:04.539Z,11.26
2017-09-27T03:18:32.799Z,10.58
2017-09-27T03:21:01.090Z,12.28
2017-09-27T03:23:29.347Z,12.02
2017-09-27T03:25:57.650Z,11.16
2017-09-27T03:28:25.141Z,12.18
2017-09-27T03:30:53.408Z,11.76
2017-09-27T03:33:21.707Z,13.72
2017-09-27T03:35:49.198Z,10.58
2017-09-27T03:38:17.475Z,11.00
2017-09-27T03:40:45.786Z,10.58
2017-09-27T03:43:14.990Z,9.98
2017-09-27T03:45:43.246Z,10.72
2017-09-27T03:48:11.529Z,10.68
2017-09-27T03:50:39.782Z,10.58
2017-09-27T03:53:08.087Z,10.04
2017-09-27T03:55:36.344Z,11.68
2017-09-27T03:58:04.597Z,10.88
2017-09-27T04:00:32.892Z,10.90
2017-09-27T04:03:01.146Z,11.18
2017-09-27T04:05:29.447Z,12.38
2017-09-27T04:07:57.716Z,11.02
2017-09-27T04:10:26.015Z,12.28
2017-09-27T04:12:54.264Z,11.70
2017-09-27T04:15:23.110Z,12.04
2017-09-27T04:17:52.273Z,12.12
2017-09-27T04:20:21.228Z,11.54
2017-09-27T04:22:52.726Z,12.12
2017-09-27T04:25:21.878Z,13.48
2017-09-27T04:27:50.134Z,12.76
2017-09-27T04:30:18.431Z,11.06
2017-09-27T04:32:45.923Z,11.20
2017-09-27T04:35:15.113Z,12.84
2017-09-27T04:37:45.051Z,13.96
2017-09-27T04:40:13.321Z,12.74
2017-09-27T04:42:41.615Z,13.20
2017-09-27T04:45:09.869Z,11.80
2017-09-27T04:47:38.167Z,11.80
2017-09-27T04:50:06.422Z,12.68
2017-09-27T04:52:34.687Z,10.98
2017-09-27T04:55:02.958Z,12.14
2017-09-27T04:57:31.210Z,11.06
2017-09-27T04:59:59.511Z,12.30
2017-09-27T05:02:28.750Z,10.70
2017-09-27T05:04:57.003Z,12.50
2017-09-27T05:07:25.304Z,12.82
2017-09-27T05:09:53.558Z,13.80
2017-09-27T05:12:22.755Z,13.28
2017-09-27T05:14:51.942Z,11.40
2017-09-27T05:17:20.244Z,11.72
2017-09-27T05:19:49.229Z,10.60
2017-09-27T05:22:17.525Z,11.98
2017-09-27T05:24:45.783Z,13.04
2017-09-27T05:27:15.194Z,12.94
2017-09-27T05:29:45.044Z,12.64
2017-09-27T05:32:13.350Z,11.60
2017-09-27T05:34:41.610Z,12.62
2017-09-27T05:37:09.870Z,12.58
2017-09-27T05:39:38.155Z,12.78
2017-09-27T05:42:06.410Z,12.62
2017-09-27T05:44:34.699Z,11.20
2017-09-27T05:47:02.951Z,12.24
2017-09-27T05:49:31.263Z,11.86
2017-09-27T05:51:59.515Z,12.26
2017-09-27T05:54:27.816Z,12.46
2017-09-27T05:56:56.083Z,12.00
2017-09-27T05:59:24.331Z,11.36
2017-09-27T06:01:53.766Z,13.22
2017-09-27T06:04:23.164Z,11.98
2017-09-27T06:06:52.324Z,11.40
2017-09-27T06:09:21.292Z,13.34
2017-09-27T06:11:49.586Z,13.36
2017-09-27T06:14:17.833Z,11.54
2017-09-27T06:16:46.115Z,13.14
2017-09-27T06:19:15.424Z,12.66
2017-09-27T06:21:44.356Z,12.98
2017-09-27T06:24:12.615Z,15.74
2017-09-27T06:26:40.894Z,12.38
2017-09-27T06:29:09.207Z,12.58
2017-09-27T06:31:38.398Z,11.06
2017-09-27T06:34:06.658Z,11.44
2017-09-27T06:36:34.959Z,14.28
2017-09-27T06:39:03.223Z,15.72
2017-09-27T06:41:31.518Z,12.96
2017-09-27T06:43:59.775Z,14.70
2017-09-27T06:46:28.031Z,12.00
2017-09-27T06:48:55.561Z,12.36
2017-09-27T06:51:23.814Z,13.08
2017-09-27T06:53:53.339Z,12.78
2017-09-27T06:56:21.619Z,13.14
2017-09-27T06:58:49.161Z,12.92
2017-09-27T07:01:17.419Z,14.12
2017-09-27T07:03:45.679Z,12.86
2017-09-27T07:06:14.917Z,13.46
2017-09-27T07:08:43.175Z,12.96
2017-09-27T07:11:11.465Z,13.98
2017-09-27T07:13:39.726Z,14.52
2017-09-27T07:16:15.427Z,13.46
2017-09-27T07:18:43.706Z,16.30
2017-09-27T07:21:12.015Z,18.68
2017-09-27T07:23:40.272Z,19.38
2017-09-27T07:26:08.535Z,18.44
2017-09-27T07:28:36.810Z,18.74
2017-09-27T07:31:05.077Z,18.48
2017-09-27T07:33:33.366Z,20.02
2017-09-27T07:36:01.662Z,20.04
2017-09-27T07:38:29.918Z,21.72
2017-09-27T07:40:58.170Z,24.40
2017-09-27T07:43:26.475Z,24.72
2017-09-27T07:45:54.734Z,25.52
2017-09-27T07:48:22.994Z,28.62
2017-09-27T07:50:52.149Z,26.64
2017-09-27T07:53:19.645Z,29.52
2017-09-27T07:55:47.948Z,28.66
2017-09-27T07:58:16.202Z,25.42
2017-09-27T08:00:45.331Z,26.74
2017-09-27T08:03:12.863Z,27.68
2017-09-27T08:05:41.119Z,27.04
2017-09-27T08:08:08.643Z,27.26
2017-09-27T08:10:36.911Z,25.52
2017-09-27T08:13:05.170Z,27.00
2017-09-27T08:15:39.606Z,23.74
2017-09-27T08:18:07.894Z,26.24
2017-09-27T08:20:55.807Z,25.52
2017-09-27T08:23:24.073Z,22.98
2017-09-27T08:25:55.780Z,25.00
2017-09-27T08:28:24.039Z,26.18
2017-09-27T08:31:12.635Z,23.70
2017-09-27T08:33:40.886Z,24.54
2017-09-27T08:36:12.634Z,25.54
2017-09-27T08:38:40.117Z,23.28
2017-09-27T08:41:08.410Z,24.16
2017-09-27T08:43:36.716Z,23.60
2017-09-27T08:46:04.970Z,23.86
2017-09-27T08:48:33.227Z,24.26
2017-09-27T08:51:01.587Z,21.88
2017-09-27T08:53:29.839Z,24.66
2017-09-27T08:55:58.117Z,23.30
2017-09-27T08:58:27.630Z,23.02
2017-09-27T09:00:55.883Z,23.66
2017-09-27T09:03:24.167Z,24.86
2017-09-27T09:05:53.551Z,24.30
2017-09-27T09:08:21.834Z,23.84
2017-09-27T09:10:50.100Z,22.22
2017-09-27T09:13:18.394Z,22.96
2017-09-27T09:15:46.655Z,22.48
2017-09-27T09:18:15.985Z,20.84
2017-09-27T09:20:45.748Z,24.90
2017-09-27T09:23:15.025Z,22.58
2017-09-27T09:25:43.310Z,23.38
2017-09-27T09:28:11.604Z,23.80
2017-09-27T09:30:39.855Z,24.02
2017-09-27T09:33:08.145Z,25.00
2017-09-27T09:35:36.399Z,25.96
2017-09-27T09:38:04.652Z,24.12
2017-09-27T09:40:32.934Z,24.26
2017-09-27T09:43:01.185Z,22.04
2017-09-27T09:45:29.488Z,23.22
2017-09-27T09:47:57.739Z,24.36
2017-09-27T09:50:25.994Z,24.66
2017-09-27T09:52:54.291Z,24.84
2017-09-27T09:55:22.823Z,22.10
2017-09-27T09:57:51.990Z,25.58
2017-09-27T10:00:20.286Z,25.78
2017-09-27T10:02:48.583Z,25.26
2017-09-27T10:05:16.091Z,28.10
2017-09-27T10:07:45.919Z,25.10
2017-09-27T10:10:15.586Z,27.06
2017-09-27T10:12:45.008Z,24.52
2017-09-27T10:15:13.257Z,25.90
2017-09-27T10:17:41.547Z,24.58
2017-09-27T10:20:09.808Z,21.46
2017-09-27T10:22:38.102Z,21.68
2017-09-27T10:25:06.371Z,21.78
2017-09-27T10:27:34.653Z,21.60
2017-09-27T10:30:02.945Z,19.00
2017-09-27T10:32:32.323Z,21.52
2017-09-27T10:35:00.632Z,21.16
2017-09-27T10:37:28.887Z,19.54
2017-09-27T10:39:57.148Z,19.98
2017-09-27T10:42:24.663Z,20.14
2017-09-27T10:44:52.923Z,20.64
2017-09-27T10:47:21.670Z,19.54
2017-09-27T10:49:49.957Z,18.88
2017-09-27T10:52:19.218Z,20.10
2017-09-27T10:54:47.541Z,18.68
2017-09-27T10:57:15.798Z,18.80
2017-09-27T10:59:45.044Z,18.62
2017-09-27T11:02:14.914Z,17.42
2017-09-27T11:04:43.259Z,17.80
2017-09-27T11:07:11.533Z,18.72
2017-09-27T11:09:39.782Z,17.48
2017-09-27T11:12:08.065Z,17.18
2017-09-27T11:14:36.326Z,19.48
2017-09-27T11:17:04.618Z,15.96
2017-09-27T11:19:32.870Z,16.22
2017-09-27T11:22:01.127Z,18.04
2017-09-27T11:24:29.419Z,19.96
2017-09-27T11:26:57.722Z,17.14
2017-09-27T11:29:25.971Z,19.18
2017-09-27T11:31:54.223Z,17.48
2017-09-27T11:34:23.771Z,16.34
2017-09-27T11:36:52.986Z,17.86
2017-09-27T11:39:21.314Z,17.30
2017-09-27T11:41:49.607Z,16.80
2017-09-27T11:44:17.854Z,18.10
2017-09-27T11:46:46.103Z,17.08
2017-09-27T11:49:15.402Z,15.62
2017-09-27T11:51:43.659Z,16.04
2017-09-27T11:54:11.911Z,14.22
2017-09-27T11:56:40.202Z,16.10
2017-09-27T11:59:08.463Z,14.82
2017-09-27T12:01:36.723Z,16.04
2017-09-27T12:04:05.015Z,15.66
2017-09-27T12:06:33.262Z,15.62
2017-09-27T12:09:01.511Z,14.04
2017-09-27T12:11:29.027Z,15.02
2017-09-27T12:13:57.294Z,14.38
2017-09-27T12:16:25.551Z,13.80
2017-09-27T12:18:53.850Z,14.42
2017-09-27T12:21:23.382Z,14.44
2017-09-27T12:23:52.526Z,14.32
2017-09-27T12:26:21.239Z,13.92
2017-09-27T12:28:49.495Z,14.36
2017-09-27T12:31:17.782Z,13.74
2017-09-27T12:33:46.367Z,15.42
2017-09-27T12:36:14.622Z,13.06
2017-09-27T12:38:42.914Z,13.22
2017-09-27T12:41:11.175Z,11.62
2017-09-27T12:43:39.583Z,13.28
2017-09-27T12:46:07.838Z,11.86
2017-09-27T12:48:36.123Z,11.22
2017-09-27T12:51:04.418Z,11.04
2017-09-27T12:53:31.907Z,10.08
2017-09-27T12:55:59.423Z,11.20
2017-09-27T12:58:27.683Z,10.94
2017-09-27T13:00:55.962Z,12.40
2017-09-27T13:03:24.229Z,12.12
2017-09-27T13:05:53.102Z,11.82
2017-09-27T13:08:22.038Z,13.16
2017-09-27T13:10:50.299Z,12.98
2017-09-27T13:13:18.560Z,13.42
2017-09-27T13:15:46.843Z,12.22
2017-09-27T13:18:16.445Z,12.68
2017-09-27T13:20:45.012Z,11.80
2017-09-27T13:23:13.265Z,9.40
2017-09-27T13:25:41.514Z,9.80
2017-09-27T13:28:09.850Z,10.38
2017-09-27T13:30:38.114Z,10.20
2017-09-27T13:33:06.367Z,10.22
2017-09-27T13:35:34.639Z,10.04
2017-09-27T13:38:02.892Z,8.88
2017-09-27T13:40:31.188Z,8.38
2017-09-27T13:42:59.439Z,8.50
2017-09-27T13:45:30.803Z,9.02
2017-09-27T13:47:59.055Z,9.24
2017-09-27T13:50:27.315Z,9.04
2017-09-27T13:52:55.586Z,10.58
2017-09-27T13:55:23.095Z,10.16
2017-09-27T13:57:52.828Z,10.24
2017-09-27T14:00:22.051Z,10.44
2017-09-27T14:02:50.327Z,9.42
2017-09-27T14:05:18.584Z,10.14
2017-09-27T14:07:46.105Z,9.60
2017-09-27T14:10:15.539Z,8.64
2017-09-27T14:12:43.831Z,8.68
2017-09-27T14:15:12.095Z,13.84
2017-09-27T14:17:40.420Z,10.52
2017-09-27T14:20:08.705Z,11.74
2017-09-27T14:22:36.990Z,9.90
2017-09-27T14:25:05.271Z,10.18
2017-09-27T14:27:33.526Z,9.34
2017-09-27T14:30:01.814Z,10.12
2017-09-27T14:32:30.090Z,9.56
2017-09-27T14:34:57.587Z,10.42
2017-09-27T14:37:25.875Z,9.48
2017-09-27T14:39:54.138Z,10.10
2017-09-27T14:42:23.338Z,9.68
2017-09-27T14:44:52.679Z,10.18
2017-09-27T14:47:21.366Z,8.78
2017-09-27T14:49:49.651Z,10.74
2017-09-27T14:52:17.985Z,9.00
2017-09-27T14:54:46.532Z,9.40
2017-09-27T14:57:15.490Z,10.00
2017-09-27T14:59:43.743Z,10.44
2017-09-27T15:02:12.026Z,9.06
2017-09-27T15:04:40.316Z,9.26
2017-09-27T15:07:08.567Z,8.50
2017-09-27T15:09:36.851Z,8.88
2017-09-27T15:12:05.131Z,8.98
2017-09-27T15:14:33.379Z,8.72
2017-09-27T15:17:01.662Z,9.42
2017-09-27T15:19:29.946Z,8.98
2017-09-27T15:21:58.203Z,72.14
2017-09-27T15:24:26.463Z,23.32
2017-09-27T15:26:54.767Z,8.94
2017-09-27T15:29:23.015Z,8.80
2017-09-27T15:31:51.310Z,8.92
2017-09-27T15:34:19.604Z,11.32
2017-09-27T15:36:47.855Z,9.44
2017-09-27T15:39:16.139Z,9.52
2017-09-27T15:41:45.400Z,10.12
2017-09-27T15:44:13.695Z,10.04
2017-09-27T15:46:41.947Z,8.78
2017-09-27T15:49:10.207Z,8.92
2017-09-27T15:51:38.482Z,8.56
2017-09-27T15:54:06.738Z,8.70
2017-09-27T15:56:35.015Z,8.96
2017-09-27T15:59:03.275Z,7.56
2017-09-27T16:01:31.568Z,7.72
2017-09-27T16:03:59.810Z,8.64
2017-09-27T16:06:28.092Z,8.78
2017-09-27T16:08:56.392Z,8.38
2017-09-27T16:11:24.650Z,8.62
2017-09-27T16:13:52.904Z,7.78
2017-09-27T16:16:22.101Z,9.06
2017-09-27T16:18:50.354Z,8.32
2017-09-27T16:21:19.583Z,8.20
2017-09-27T16:23:47.079Z,8.20
2017-09-27T16:26:16.042Z,8.48
2017-09-27T16:28:45.155Z,8.90
2017-09-27T16:31:14.155Z,8.00
2017-09-27T16:33:42.506Z,8.60
2017-09-27T16:36:10.764Z,8.50
2017-09-27T16:38:39.070Z,8.06
2017-09-27T16:41:07.320Z,9.26
2017-09-27T16:43:35.623Z,8.58
2017-09-27T16:46:03.106Z,8.44
2017-09-27T16:48:31.358Z,11.08
2017-09-27T16:50:59.685Z,8.60
2017-09-27T16:53:27.907Z,8.64
2017-09-27T16:55:56.194Z,9.50
2017-09-27T16:58:24.476Z,9.50
2017-09-27T17:00:53.622Z,8.82
2017-09-27T17:03:21.918Z,9.04
2017-09-27T17:05:50.175Z,9.74
2017-09-27T17:08:18.422Z,9.68
2017-09-27T17:10:46.705Z,11.32
2017-09-27T17:13:15.940Z,11.58
2017-09-27T17:15:45.807Z,9.74
2017-09-27T17:18:13.298Z,10.46
2017-09-27T17:20:41.579Z,10.88
2017-09-27T17:23:09.862Z,10.80
2017-09-27T17:25:38.125Z,10.26
2017-09-27T17:28:06.406Z,13.46
2017-09-27T17:30:34.667Z,12.64
2017-09-27T17:33:02.955Z,12.04
2017-09-27T17:35:30.446Z,14.32
2017-09-27T17:37:58.704Z,13.04
2017-09-27T17:40:26.986Z,13.16
2017-09-27T17:42:55.262Z,12.96
2017-09-27T17:45:23.522Z,13.44
2017-09-27T17:47:51.802Z,13.38
2017-09-27T17:50:20.060Z,14.38
2017-09-27T17:52:48.338Z,16.90
2017-09-27T17:55:16.610Z,14.36
2017-09-27T17:57:45.623Z,13.76
2017-09-27T18:00:15.253Z,14.54
2017-09-27T18:02:44.181Z,14.74
2017-09-27T18:05:18.194Z,13.82
2017-09-27T18:07:52.262Z,14.92
2017-09-27T18:10:26.212Z,16.02
2017-09-27T18:13:15.234Z,14.58
2017-09-27T18:15:54.934Z,14.60
2017-09-27T18:18:24.031Z,14.72
2017-09-27T18:20:53.096Z,13.60
2017-09-27T18:23:21.852Z,16.46
2017-09-27T18:25:50.138Z,15.06
2017-09-27T18:28:18.399Z,15.06
2017-09-27T18:30:46.690Z,15.02
2017-09-27T18:33:15.763Z,15.98
2017-09-27T18:35:45.101Z,16.16
2017-09-27T18:38:13.382Z,16.34
2017-09-27T18:40:41.642Z,14.86
2017-09-27T18:43:09.935Z,14.70
2017-09-27T18:45:38.191Z,16.90
2017-09-27T18:48:06.438Z,15.92
2017-09-27T18:50:34.727Z,14.62
2017-09-27T18:53:03.012Z,13.56
2017-09-27T18:55:31.310Z,14.72
2017-09-27T18:57:59.599Z,14.36
2017-09-27T19:00:27.854Z,14.78
2017-09-27T19:02:56.098Z,14.96
2017-09-27T19:05:25.464Z,13.28
2017-09-27T19:07:53.751Z,14.36
2017-09-27T19:10:22.047Z,16.30
2017-09-27T19:12:50.297Z,14.74
2017-09-27T19:15:18.554Z,17.86
2017-09-27T19:17:46.844Z,19.10
2017-09-27T19:20:17.082Z,18.96
2017-09-27T19:22:46.496Z,21.48
2017-09-27T19:25:15.387Z,22.70
2017-09-27T19:27:44.048Z,20.02
2017-09-27T19:30:12.348Z,17.76
2017-09-27T19:32:40.595Z,17.86
2017-09-27T19:35:09.826Z,18.18
2017-09-27T19:37:38.111Z,16.80
2017-09-27T19:40:09.892Z,16.40
2017-09-27T19:42:38.179Z,16.64
2017-09-27T19:45:10.063Z,15.90
2017-09-27T19:47:38.324Z,16.42
2017-09-27T19:50:10.211Z,16.22
2017-09-27T19:52:38.494Z,15.00
2017-09-27T19:55:06.939Z,15.68
2017-09-27T19:57:35.222Z,14.46
2017-09-27T20:00:03.479Z,16.72
2017-09-27T20:02:31.771Z,15.16
2017-09-27T20:05:00.023Z,15.00
2017-09-27T20:07:28.312Z,13.98
2017-09-27T20:09:56.598Z,16.04
2017-09-27T20:12:24.856Z,15.10
2017-09-27T20:14:53.126Z,14.86
2017-09-27T20:17:21.467Z,14.94
2017-09-27T20:19:49.714Z,16.08
2017-09-27T20:22:17.994Z,16.78
2017-09-27T20:24:46.257Z,15.68
2017-09-27T20:27:15.328Z,14.24
2017-09-27T20:29:44.208Z,15.42
2017-09-27T20:32:12.621Z,15.00
2017-09-27T20:34:41.963Z,14.24
2017-09-27T20:37:10.246Z,14.68
2017-09-27T20:39:38.616Z,16.76
2017-09-27T20:42:06.111Z,15.30
2017-09-27T20:44:39.166Z,16.36
2017-09-27T20:47:07.447Z,15.88
2017-09-27T20:49:39.143Z,15.30
2017-09-27T20:52:07.430Z,15.74
2017-09-27T20:54:40.104Z,15.34
2017-09-27T20:57:08.391Z,16.10
2017-09-27T20:59:36.674Z,15.78
2017-09-27T21:02:04.958Z,14.40
2017-09-27T21:04:36.482Z,15.16
2017-09-27T21:07:04.770Z,15.60
2017-09-27T21:09:34.037Z,14.44
2017-09-27T21:12:02.329Z,15.40
2017-09-27T21:14:36.287Z,16.10
2017-09-27T21:17:04.575Z,16.00
2017-09-27T21:19:32.835Z,16.08
2017-09-27T21:22:01.131Z,15.74
2017-09-27T21:24:31.383Z,16.60
2017-09-27T21:26:59.663Z,15.44
2017-09-27T21:29:34.203Z,13.18
2017-09-27T21:32:02.510Z,15.24
2017-09-27T21:34:32.702Z,16.10
2017-09-27T21:37:00.966Z,15.12
2017-09-27T21:39:32.340Z,15.18
2017-09-27T21:42:00.610Z,15.98
2017-09-27T21:44:32.465Z,16.34
2017-09-27T21:47:00.743Z,17.38
2017-09-27T21:49:36.159Z,14.24
2017-09-27T21:52:04.417Z,15.84
2017-09-27T21:54:33.579Z,17.00
2017-09-27T21:57:01.867Z,17.46
2017-09-27T21:59:49.460Z,16.10
2017-09-27T22:02:32.247Z,17.96
2017-09-27T22:05:00.498Z,17.86
2017-09-27T22:07:28.750Z,15.22
2017-09-27T22:09:57.059Z,15.32
2017-09-27T22:12:32.513Z,16.26
2017-09-27T22:15:00.807Z,16.28
2017-09-27T22:17:29.054Z,17.12
2017-09-27T22:19:57.350Z,16.02
2017-09-27T22:22:29.083Z,16.30
2017-09-27T22:24:57.375Z,17.46
2017-09-27T22:27:25.631Z,15.24
2017-09-27T22:29:53.879Z,16.02
2017-09-27T22:32:23.513Z,18.02
2017-09-27T22:34:52.681Z,16.34
2017-09-27T22:37:20.985Z,15.10
2017-09-27T22:39:49.262Z,16.18
2017-09-27T22:42:17.562Z,14.78
2017-09-27T22:44:45.831Z,15.82
2017-09-27T22:47:14.542Z,15.84
2017-09-27T22:49:42.834Z,16.60
2017-09-27T22:52:11.091Z,14.86
2017-09-27T22:54:39.388Z,16.18
2017-09-27T22:57:07.639Z,15.16
2017-09-27T22:59:35.894Z,14.72
2017-09-27T23:02:04.184Z,18.62
2017-09-27T23:04:32.442Z,17.44
2017-09-27T23:07:00.780Z,17.38
2017-09-27T23:09:29.039Z,17.04
2017-09-27T23:11:57.291Z,15.64
2017-09-27T23:14:25.579Z,17.30
2017-09-27T23:16:53.831Z,15.18
2017-09-27T23:19:22.119Z,15.80
2017-09-27T23:21:50.379Z,17.30
2017-09-27T23:24:18.671Z,16.40
2017-09-27T23:26:46.963Z,17.22
2017-09-27T23:29:16.507Z,16.06
2017-09-27T23:31:48.037Z,16.24
2017-09-27T23:34:16.291Z,16.08
2017-09-27T23:36:44.590Z,16.48
2017-09-27T23:39:12.855Z,16.68
2017-09-27T23:41:41.103Z,17.32
2017-09-27T23:44:09.396Z,15.86
2017-09-27T23:46:37.652Z,16.54
2017-09-27T23:49:05.930Z,17.64
2017-09-27T23:51:34.184Z,17.74
2017-09-27T23:54:02.483Z,17.72
2017-09-27T23:56:30.743Z,18.12
2017-09-27T23:58:59.003Z,18.00
